createdAt,value
2023-04-10T00:00:41.599Z,12.07
2023-04-10T00:05:41.143Z,12.15
2023-04-10T00:10:40.016Z,12.23
2023-04-10T00:15:38.159Z,12.73
2023-04-10T00:20:36.332Z,12.60
2023-04-10T00:25:35.878Z,13.63
2023-04-10T00:30:34.016Z,13.48
2023-04-10T00:35:32.535Z,14.10
2023-04-10T00:40:30.865Z,16.38
2023-04-10T00:45:30.459Z,16.20
2023-04-10T00:50:28.577Z,17.17
2023-04-10T00:55:27.093Z,15.45
2023-04-10T01:00:25.307Z,16.77
2023-04-10T01:05:25.967Z,17.15
2023-04-10T01:10:28.170Z,18.40
2023-04-10T01:15:27.985Z,16.88
2023-04-10T01:20:29.986Z,15.50
2023-04-10T01:25:38.386Z,17.17
2023-04-10T01:30:42.140Z,15.70
2023-04-10T01:35:42.672Z,17.65
2023-04-10T01:40:42.311Z,19.65
2023-04-10T01:45:44.033Z,17.55
2023-04-10T01:50:42.524Z,16.80
2023-04-10T01:55:40.932Z,18.85
2023-04-10T02:00:44.292Z,18.42
2023-04-10T02:05:54.208Z,20.48
2023-04-10T02:10:54.915Z,20.40
2023-04-10T02:15:55.931Z,21.48
2023-04-10T02:20:55.840Z,21.88
2023-04-10T02:25:53.972Z,20.42
2023-04-10T02:30:52.134Z,20.92
2023-04-10T02:35:50.302Z,21.60
2023-04-10T02:40:50.405Z,20.00
2023-04-10T02:45:49.458Z,21.33
2023-04-10T02:50:56.978Z,22.50
2023-04-10T02:55:56.696Z,20.88
2023-04-10T03:00:55.002Z,22.33
2023-04-10T03:06:08.147Z,22.98
2023-04-10T03:11:10.119Z,23.55
2023-04-10T03:16:08.788Z,22.65
2023-04-10T03:21:07.658Z,21.83
2023-04-10T03:26:06.008Z,24.40
2023-04-10T03:31:10.762Z,23.63
2023-04-10T03:36:10.402Z,24.00
2023-04-10T03:41:08.604Z,24.10
2023-04-10T03:46:07.205Z,24.98
2023-04-10T03:51:14.125Z,23.90
2023-04-10T03:56:12.396Z,24.30
2023-04-10T04:01:10.749Z,25.42
2023-04-10T04:06:27.482Z,28.75
2023-04-10T04:12:04.010Z,38.70
2023-04-10T04:17:20.531Z,38.22
2023-04-10T04:22:38.370Z,73.53
2023-04-10T04:27:45.432Z,26.83
2023-04-10T04:33:01.826Z,24.00
2023-04-10T04:38:33.715Z,25.85
2023-04-10T04:43:42.235Z,22.60
2023-04-10T04:48:58.241Z,23.40
2023-04-10T04:54:08.965Z,24.60
2023-04-10T04:59:21.337Z,25.80
2023-04-10T05:04:57.908Z,24.45
2023-04-10T05:10:17.719Z,25.40
2023-04-10T05:15:34.407Z,25.15
2023-04-10T05:20:51.184Z,24.00
2023-04-10T05:25:58.332Z,25.15
2023-04-10T05:31:15.076Z,26.67
2023-04-10T05:36:24.578Z,25.52
2023-04-10T05:41:59.470Z,25.00
2023-04-10T05:47:02.291Z,24.53
2023-04-10T05:52:09.594Z,23.35
2023-04-10T05:57:27.785Z,23.58
2023-04-10T06:02:44.563Z,24.27
2023-04-10T06:07:51.878Z,23.60
2023-04-10T06:12:51.461Z,35.30
2023-04-10T06:17:54.056Z,36.03
2023-04-10T06:22:52.771Z,24.52
2023-04-10T06:27:52.291Z,23.65
2023-04-10T06:32:50.499Z,25.95
2023-04-10T06:37:48.802Z,24.90
2023-04-10T06:42:47.386Z,29.17
2023-04-10T06:47:55.071Z,22.58
2023-04-10T06:52:55.997Z,24.17
2023-04-10T06:57:55.044Z,24.75
2023-04-10T07:02:53.511Z,23.45
2023-04-10T07:07:53.365Z,28.27
2023-04-10T07:12:51.617Z,25.98
2023-04-10T07:17:49.919Z,28.42
2023-04-10T07:22:48.149Z,26.88
2023-04-10T07:27:47.651Z,21.48
2023-04-10T07:32:46.096Z,23.05
2023-04-10T07:37:44.910Z,26.15
2023-04-10T07:42:43.038Z,21.58
2023-04-10T07:47:42.566Z,25.20
2023-04-10T07:52:40.789Z,21.15
2023-04-10T07:57:40.616Z,23.48
2023-04-10T08:02:40.927Z,25.42
2023-04-10T08:07:40.602Z,23.98
2023-04-10T08:12:39.867Z,22.60
2023-04-10T08:17:38.063Z,24.00
2023-04-10T08:22:36.184Z,23.13
2023-04-10T08:27:35.702Z,21.33
2023-04-10T08:32:33.878Z,19.92
2023-04-10T08:37:32.008Z,21.67
2023-04-10T08:42:31.707Z,27.10
2023-04-10T08:47:35.360Z,25.27
2023-04-10T08:52:36.158Z,20.25
2023-04-10T08:57:34.306Z,20.77
2023-04-10T09:02:34.020Z,18.23
2023-04-10T09:07:32.775Z,19.90
2023-04-10T09:12:30.877Z,22.30
2023-04-10T09:17:29.021Z,29.08
2023-04-10T09:22:32.578Z,19.23
2023-04-10T09:27:33.034Z,19.83
2023-04-10T09:32:38.893Z,18.65
2023-04-10T09:37:38.795Z,17.60
2023-04-10T09:42:37.615Z,17.25
2023-04-10T09:47:36.280Z,15.88
2023-04-10T09:52:35.311Z,15.57
2023-04-10T09:57:35.488Z,16.40
2023-04-10T10:02:37.543Z,17.13
2023-04-10T10:07:35.975Z,14.90
2023-04-10T10:12:41.822Z,13.55
2023-04-10T10:17:42.727Z,14.18
2023-04-10T10:22:41.428Z,13.65
2023-04-10T10:27:41.552Z,14.43
2023-04-10T10:32:40.896Z,12.77
2023-04-10T10:37:40.161Z,11.95
2023-04-10T10:42:41.938Z,12.20
2023-04-10T10:47:43.079Z,10.63
2023-04-10T10:52:42.466Z,10.38
2023-04-10T10:57:47.080Z,9.18
2023-04-10T11:08:02.250Z,9.27
2023-04-10T11:13:17.876Z,8.68
2023-04-10T11:18:16.031Z,8.07
2023-04-10T11:23:14.267Z,9.00
2023-04-10T11:28:34.497Z,9.95
2023-04-10T11:33:34.058Z,10.43
2023-04-10T11:38:32.857Z,9.10
2023-04-10T11:43:31.474Z,10.43
2023-04-10T11:48:29.841Z,12.57
2023-04-10T11:53:30.264Z,9.93
2023-04-10T11:58:30.031Z,11.63
2023-04-10T12:03:38.739Z,10.27
2023-04-10T12:08:39.089Z,9.13
2023-04-10T12:13:37.467Z,8.07
2023-04-10T12:18:37.411Z,9.32
2023-04-10T12:23:37.297Z,8.88
2023-04-10T12:28:37.105Z,7.43
2023-04-10T12:33:35.371Z,7.78
2023-04-10T12:38:37.204Z,9.25
2023-04-10T12:43:37.398Z,8.32
2023-04-10T12:48:35.674Z,8.48
2023-04-10T12:53:43.744Z,7.18
2023-04-10T12:58:43.772Z,7.30
2023-04-10T13:03:42.031Z,7.80
2023-04-10T13:08:40.587Z,8.43
2023-04-10T13:13:38.694Z,8.57
2023-04-10T13:18:41.373Z,8.68
2023-04-10T13:23:39.476Z,8.93
2023-04-10T13:28:37.606Z,8.75
2023-04-10T13:33:35.967Z,7.35
2023-04-10T13:38:35.559Z,7.78
2023-04-10T13:43:33.765Z,8.15
2023-04-10T13:48:40.217Z,7.30
2023-04-10T13:53:40.073Z,6.75
2023-04-10T13:58:38.194Z,10.15
2023-04-10T14:03:36.374Z,6.95
2023-04-10T14:08:34.665Z,9.93
2023-04-10T14:13:34.264Z,8.45
2023-04-10T14:18:32.379Z,7.50
2023-04-10T14:23:30.490Z,8.20
2023-04-10T14:28:29.306Z,9.45
2023-04-10T14:33:28.897Z,10.35
2023-04-10T14:38:27.117Z,8.80
2023-04-10T14:43:25.356Z,9.95
2023-04-10T14:48:23.707Z,8.30
2023-04-10T14:53:23.437Z,8.50
2023-04-10T14:58:21.579Z,8.95
2023-04-10T15:03:20.315Z,8.98
2023-04-10T15:08:19.844Z,7.28
2023-04-10T15:13:19.843Z,9.25
2023-04-10T15:18:17.968Z,7.65
2023-04-10T15:23:17.530Z,7.95
2023-04-10T15:28:15.674Z,8.57
2023-04-10T15:33:23.690Z,10.48
2023-04-10T15:38:22.010Z,14.48
2023-04-10T15:43:23.400Z,21.17
2023-04-10T15:48:24.689Z,9.77
2023-04-10T15:53:22.893Z,11.38
2023-04-10T15:58:21.056Z,9.57
2023-04-10T16:03:19.378Z,10.75
2023-04-10T16:08:18.980Z,12.65
2023-04-10T16:13:17.100Z,13.55
2023-04-10T16:18:15.328Z,13.32
2023-04-10T16:23:13.451Z,13.52
2023-04-10T16:28:13.069Z,24.02
2023-04-10T16:33:11.416Z,22.63
2023-04-10T16:38:09.670Z,28.75
2023-04-10T16:43:07.806Z,48.83
2023-04-10T16:48:07.449Z,42.83
2023-04-10T16:53:05.705Z,26.40
2023-04-10T16:58:03.845Z,18.58
2023-04-10T17:03:02.103Z,23.25
2023-04-10T17:08:01.691Z,15.23
2023-04-10T17:12:59.886Z,15.38
2023-04-10T17:17:58.027Z,19.50
2023-04-10T17:22:56.215Z,15.00
2023-04-10T17:27:55.730Z,15.05
2023-04-10T17:32:54.221Z,13.55
2023-04-10T17:37:52.588Z,15.15
2023-04-10T17:42:50.957Z,16.35
2023-04-10T17:47:50.580Z,15.70
2023-04-10T17:52:48.741Z,15.80
2023-04-10T17:57:46.929Z,15.57
2023-04-10T18:02:45.414Z,16.48
2023-04-10T18:07:45.045Z,25.02
2023-04-10T18:12:43.196Z,25.88
2023-04-10T18:17:41.746Z,27.73
2023-04-10T18:22:40.329Z,26.00
2023-04-10T18:27:43.500Z,26.48
2023-04-10T18:32:43.748Z,33.60
2023-04-10T18:37:42.363Z,30.20
2023-04-10T18:42:41.900Z,28.63
2023-04-10T18:47:40.115Z,19.92
2023-04-10T18:52:38.505Z,15.60
2023-04-10T18:57:37.301Z,16.48
2023-04-10T19:02:37.406Z,14.90
2023-04-10T19:07:35.748Z,16.02
2023-04-10T19:12:35.291Z,17.73
2023-04-10T19:17:33.697Z,17.73
2023-04-10T19:22:34.867Z,17.88
2023-04-10T19:27:33.025Z,17.55
2023-04-10T19:32:31.343Z,17.65
2023-04-10T19:37:31.339Z,20.83
2023-04-10T19:42:30.920Z,22.85
2023-04-10T19:47:32.081Z,18.30
2023-04-10T19:52:30.266Z,14.50
2023-04-10T19:57:28.401Z,13.18
2023-04-10T20:02:29.192Z,14.15
2023-04-10T20:07:27.398Z,11.75
2023-04-10T20:12:25.691Z,11.43
2023-04-10T20:17:38.643Z,11.70
2023-04-10T20:22:38.277Z,11.35
2023-04-10T20:27:36.492Z,10.25
2023-04-10T20:32:34.657Z,12.52
2023-04-10T20:37:32.818Z,11.52
2023-04-10T20:42:32.469Z,10.80
2023-04-10T20:47:30.671Z,10.18
2023-04-10T20:52:28.849Z,10.35
2023-04-10T21:02:46.014Z,9.93
2023-04-10T21:07:48.614Z,9.48
2023-04-10T21:12:49.810Z,9.70
2023-04-10T21:17:49.355Z,9.48
2023-04-10T21:28:02.739Z,10.27
2023-04-10T21:33:02.306Z,10.18
2023-04-10T21:38:02.325Z,9.88
2023-04-10T21:43:00.892Z,10.23
2023-04-10T21:48:00.460Z,10.38
2023-04-10T21:53:00.630Z,10.52
2023-04-10T21:57:58.762Z,9.68
2023-04-10T22:02:56.988Z,9.98
2023-04-10T22:07:55.270Z,11.40
2023-04-10T22:12:54.770Z,9.45
2023-04-10T22:17:53.106Z,9.77
2023-04-10T22:22:54.037Z,9.82
2023-04-10T22:27:52.368Z,10.05
2023-04-10T22:32:55.272Z,9.30
2023-04-10T22:37:53.448Z,10.38
2023-04-10T22:42:51.590Z,9.75
2023-04-10T22:47:49.721Z,9.23
2023-04-10T22:52:49.279Z,10.00
2023-04-10T22:57:48.381Z,10.35
2023-04-10T23:02:49.440Z,8.52
2023-04-10T23:07:48.990Z,10.27
2023-04-10T23:12:50.004Z,8.60
2023-04-10T23:17:48.177Z,8.73
2023-04-10T23:22:46.418Z,9.00
2023-04-10T23:27:45.927Z,9.00
2023-04-10T23:32:44.072Z,9.07
2023-04-10T23:37:42.230Z,9.38
2023-04-10T23:42:40.372Z,9.48
2023-04-10T23:47:39.932Z,9.45
2023-04-10T23:52:38.083Z,10.48
2023-04-10T23:57:36.206Z,10.43
